Time;durP1;ratioP1;P1;durP2;ratioP2;P2;SDS_P1;SDS_P2;PMS_P1;PMS_P2;Temp;Humidity;BMP_temperature;BMP_pressure;BME280_temperature;BME280_humidity;BME280_pressure;Samples;Min_cycle;Max_cycle;Signal;HPM_P1;HPM_P2
2022/05/07 00:00:09;;;;;;;5.63;4.32;;;;;;;21.34;40.68;102336.88;5030523;28;20036;-72
2022/05/07 00:02:35;;;;;;;7.80;4.75;;;;;;;21.34;40.51;102344.84;5005739;28;20312;-72
2022/05/07 00:05:00;;;;;;;6.20;4.30;;;;;;;21.37;40.41;102336.59;5037843;28;20041;-72
2022/05/07 00:07:26;;;;;;;7.88;4.53;;;;;;;21.41;40.45;102350.38;5033493;28;20044;-72
2022/05/07 00:09:51;;;;;;;5.25;4.00;;;;;;;21.36;40.48;102348.19;5036405;28;20021;-73
2022/05/07 00:12:17;;;;;;;5.43;3.63;;;;;;;21.33;40.71;102348.47;5018634;28;20041;-72
2022/05/07 00:14:43;;;;;;;7.22;4.55;;;;;;;21.33;40.72;102348.47;5032932;28;20051;-72
2022/05/07 00:19:52;;;;;;;5.80;4.57;;;;;;;21.31;40.61;102347.81;5042298;28;20143;-72
2022/05/07 00:22:18;;;;;;;5.47;4.25;;;;;;;21.30;40.61;102332.06;5018459;28;20068;-72
2022/05/07 00:24:44;;;;;;;6.05;4.35;;;;;;;21.26;40.81;102330.72;5038893;28;20044;-72
2022/05/07 00:27:09;;;;;;;6.32;4.25;;;;;;;21.27;40.53;102332.38;5039580;28;20048;-72
2022/05/07 00:29:35;;;;;;;4.80;3.92;;;;;;;21.29;40.82;102335.69;5035851;28;20726;-72
2022/05/07 00:32:01;;;;;;;4.63;3.90;;;;;;;21.33;40.70;102329.09;5001840;28;20036;-72
2022/05/07 00:34:27;;;;;;;4.90;4.30;;;;;;;21.29;40.65;102341.00;5033674;28;20044;-72
2022/05/07 00:36:53;;;;;;;5.95;4.20;;;;;;;21.26;40.67;102331.53;5038605;28;20696;-72
2022/05/07 00:39:18;;;;;;;7.97;4.88;;;;;;;21.25;40.57;102324.56;5016290;28;20040;-72
2022/05/07 00:41:44;;;;;;;5.70;4.10;;;;;;;21.26;40.64;102320.94;5018381;28;20064;-72
2022/05/07 00:44:10;;;;;;;5.35;4.43;;;;;;;21.24;40.61;102322.06;5033703;28;20180;-72
2022/05/07 00:46:36;;;;;;;7.13;4.30;;;;;;;21.23;40.74;102312.44;5040947;28;20545;-72
2022/05/07 00:49:01;;;;;;;5.32;4.60;;;;;;;21.21;40.71;102312.59;5020525;28;20688;-72
2022/05/07 00:51:33;;;;;;;5.70;4.40;;;;;;;21.19;40.70;102313.75;5038382;28;20032;-72
2022/05/07 00:54:03;;;;;;;4.95;4.25;;;;;;;21.22;40.68;102308.13;5016810;28;20041;-72
2022/05/07 00:56:29;;;;;;;5.55;4.00;;;;;;;21.22;40.86;102308.13;5035153;28;20029;-72
2022/05/07 00:58:55;;;;;;;5.25;4.50;;;;;;;21.19;40.93;102311.91;5014075;28;20389;-72
2022/05/07 01:01:21;;;;;;;6.55;4.35;;;;;;;21.18;40.82;102296.16;5033195;28;20033;-72
2022/05/07 01:03:47;;;;;;;5.78;4.45;;;;;;;21.23;40.87;102304.50;5032597;28;20138;-72
2022/05/07 01:06:13;;;;;;;5.93;4.40;;;;;;;21.13;40.70;102297.44;5019593;28;20040;-72
2022/05/07 01:08:40;;;;;;;5.35;4.30;;;;;;;21.21;40.88;102306.47;5019559;28;20032;-72
2022/05/07 01:11:06;;;;;;;5.43;4.15;;;;;;;21.21;40.85;102298.53;5044167;28;20036;-72
2022/05/07 01:13:32;;;;;;;6.15;4.30;;;;;;;21.20;40.68;102299.50;5021642;28;20053;-74
2022/05/07 01:15:58;;;;;;;5.80;4.20;;;;;;;21.20;40.87;102303.00;5014923;28;20475;-72
2022/05/07 01:18:30;;;;;;;5.53;4.60;;;;;;;21.17;40.91;102297.97;5049014;28;20118;-72
2022/05/07 01:20:57;;;;;;;5.05;3.78;;;;;;;21.23;40.82;102301.84;5048687;28;20083;-72
2022/05/07 01:23:26;;;;;;;5.90;4.10;;;;;;;21.20;40.75;102297.69;5034942;28;20461;-72
2022/05/07 01:25:57;;;;;;;5.40;4.28;;;;;;;21.16;40.79;102287.53;5029116;28;20118;-72
2022/05/07 01:28:23;;;;;;;6.10;4.38;;;;;;;21.19;40.76;102288.06;5050003;28;20033;-72
2022/05/07 01:30:49;;;;;;;5.97;4.20;;;;;;;21.18;41.21;102289.03;5017880;28;20041;-72
2022/05/07 01:33:14;;;;;;;5.53;4.40;;;;;;;21.13;41.01;102286.03;5038157;28;20044;-72
2022/05/07 01:35:41;;;;;;;5.65;4.10;;;;;;;21.17;40.82;102283.91;5013130;28;20041;-72
2022/05/07 01:38:07;;;;;;;5.47;4.55;;;;;;;21.14;41.08;102295.63;5033828;28;20666;-72
2022/05/07 01:40:36;;;;;;;6.47;4.38;;;;;;;21.15;40.86;102291.16;4998872;28;20045;-72
2022/05/07 01:43:02;;;;;;;6.03;4.72;;;;;;;21.12;41.00;102282.53;5008254;28;20037;-72
2022/05/07 01:45:28;;;;;;;5.20;4.03;;;;;;;21.13;41.00;102281.56;5032808;28;20064;-72
2022/05/07 01:48:12;;;;;;;6.30;5.07;;;;;;;21.11;41.06;102272.09;5030596;28;21042;-75
2022/05/07 01:50:54;;;;;;;6.63;4.20;;;;;;;21.12;41.11;102284.38;5030592;28;20112;-72
2022/05/07 01:53:25;;;;;;;5.35;4.20;;;;;;;21.09;41.27;102279.38;5016054;28;20044;-72
2022/05/07 01:55:53;;;;;;;5.63;4.10;;;;;;;21.11;41.09;102277.41;5016936;28;20541;-72
2022/05/07 01:58:22;;;;;;;4.68;4.10;;;;;;;21.09;41.19;102282.03;5029036;28;20041;-72
2022/05/07 02:00:50;;;;;;;7.78;4.55;;;;;;;21.15;40.91;102285.88;5015481;28;20052;-72
2022/05/07 02:03:16;;;;;;;5.13;4.60;;;;;;;21.09;41.02;102277.56;5049268;28;20037;-72
2022/05/07 02:05:41;;;;;;;6.07;4.30;;;;;;;21.09;41.02;102276.72;5016218;28;20063;-72
2022/05/07 02:08:08;;;;;;;5.38;4.47;;;;;;;21.12;41.02;102277.25;5036241;28;20037;-72
2022/05/07 02:10:34;;;;;;;7.22;4.60;;;;;;;21.04;41.25;102263.13;5016414;28;20056;-72
2022/05/07 02:13:01;;;;;;;5.28;4.03;;;;;;;21.09;40.97;102274.91;5030802;28;20045;-72
2022/05/07 02:15:29;;;;;;;6.25;4.57;;;;;;;21.12;41.15;102274.59;5047465;28;20323;-72
2022/05/07 02:17:56;;;;;;;5.78;4.25;;;;;;;21.08;40.88;102267.13;5017944;28;20045;-72
2022/05/07 02:20:22;;;;;;;4.97;4.20;;;;;;;21.06;40.94;102264.63;5031855;28;20608;-72
2022/05/07 02:22:52;;;;;;;5.32;4.00;;;;;;;21.03;41.18;102270.22;5016520;28;20226;-72
2022/05/07 02:25:18;;;;;;;5.70;4.38;;;;;;;21.05;41.07;102268.25;5028978;28;20029;-72
2022/05/07 02:27:43;;;;;;;8.13;4.93;;;;;;;21.07;41.08;102271.59;5035933;28;20044;-71
2022/05/07 02:30:09;;;;;;;4.88;3.92;;;;;;;21.08;41.15;102269.78;5003849;28;20087;-72
2022/05/07 02:32:35;;;;;;;6.90;4.15;;;;;;;21.10;40.99;102275.75;5031879;28;20041;-74
2022/05/07 02:35:02;;;;;;;5.07;4.30;;;;;;;21.10;41.06;102271.28;5032856;28;20151;-72
2022/05/07 02:37:36;;;;;;;6.53;4.50;;;;;;;21.09;41.17;102274.06;5017960;28;20036;-73
2022/05/07 02:40:02;;;;;;;7.05;4.80;;;;;;;21.12;41.12;102268.47;5017175;28;20780;-72
2022/05/07 02:42:33;;;;;;;6.90;4.88;;;;;;;21.05;41.36;102265.59;5034546;28;20580;-72
2022/05/07 02:45:08;;;;;;;5.30;4.53;;;;;;;21.04;40.89;102263.94;5032506;28;20048;-72
2022/05/07 02:47:35;;;;;;;6.13;4.78;;;;;;;21.03;41.44;102267.59;5031856;28;20128;-72
2022/05/07 02:50:01;;;;;;;6.88;4.60;;;;;;;20.97;41.07;102248.81;5015883;28;20098;-72
2022/05/07 02:52:27;;;;;;;4.80;4.10;;;;;;;21.07;41.12;102260.16;5013537;28;20136;-74
2022/05/07 02:54:53;;;;;;;5.28;4.50;;;;;;;21.00;41.16;102267.88;4999293;28;20037;-72
2022/05/07 02:57:18;;;;;;;5.25;4.20;;;;;;;20.99;41.26;102263.56;5049476;28;20384;-72
2022/05/07 02:59:44;;;;;;;6.10;4.50;;;;;;;21.03;41.25;102270.22;4999061;28;20045;-72
2022/05/07 03:02:10;;;;;;;6.10;4.90;;;;;;;21.06;41.13;102267.28;5015889;28;20032;-72
2022/05/07 03:04:36;;;;;;;6.95;4.70;;;;;;;21.04;41.20;102269.25;5033028;28;20039;-72
2022/05/07 03:07:02;;;;;;;7.30;5.40;;;;;;;21.00;41.35;102267.03;5030979;28;20040;-72
2022/05/07 03:09:28;;;;;;;5.50;4.07;;;;;;;20.97;41.07;102262.88;5029810;28;20033;-72
2022/05/07 03:11:53;;;;;;;6.53;4.35;;;;;;;21.03;41.08;102262.28;5033071;28;20104;-72
2022/05/07 03:14:23;;;;;;;6.05;4.63;;;;;;;21.07;41.02;102266.28;5015291;28;20509;-72
2022/05/07 03:16:48;;;;;;;6.07;4.05;;;;;;;20.96;41.48;102260.38;5033649;28;20037;-72
2022/05/07 03:19:15;;;;;;;6.13;4.65;;;;;;;21.00;41.27;102261.75;4999851;28;20398;-72
2022/05/07 03:21:42;;;;;;;4.65;4.13;;;;;;;20.99;41.29;102262.72;5013209;28;20036;-72
2022/05/07 03:24:09;;;;;;;6.20;4.47;;;;;;;21.01;41.21;102264.25;5018565;28;20061;-72
2022/05/07 03:26:37;;;;;;;5.85;4.50;;;;;;;21.01;41.18;102264.25;5011777;28;20043;-74
2022/05/07 03:29:04;;;;;;;5.47;4.47;;;;;;;20.94;41.43;102257.06;5014044;28;20426;-74
2022/05/07 03:31:30;;;;;;;5.95;4.60;;;;;;;20.97;41.20;102264.69;5017392;28;20841;-75
2022/05/07 03:33:56;;;;;;;4.55;4.05;;;;;;;20.94;41.21;102252.59;5031284;28;22061;-72
2022/05/07 03:36:27;;;;;;;5.15;4.32;;;;;;;20.98;41.36;102269.00;5034671;28;20032;-74
2022/05/07 03:38:53;;;;;;;6.28;4.63;;;;;;;20.98;41.16;102264.53;5028491;28;20499;-72
2022/05/07 03:41:23;;;;;;;5.60;4.40;;;;;;;20.96;41.47;102266.50;5011301;28;20033;-72
2022/05/07 03:43:49;;;;;;;5.00;4.15;;;;;;;20.97;41.27;102272.63;5037046;28;20048;-74
2022/05/07 03:46:15;;;;;;;4.78;3.88;;;;;;;20.95;41.38;102261.38;5043030;28;20044;-74
2022/05/07 03:48:50;;;;;;;5.50;4.47;;;;;;;20.99;41.12;102265.38;5016096;28;20037;-74
2022/05/07 03:51:16;;;;;;;5.38;4.18;;;;;;;21.02;41.32;102275.69;5021145;28;20037;-74
2022/05/07 03:53:41;;;;;;;6.20;4.30;;;;;;;21.05;41.19;102267.44;5049529;28;20052;-72
2022/05/07 03:56:13;;;;;;;6.18;4.13;;;;;;;20.99;41.34;102273.31;5047744;28;20032;-72
2022/05/07 03:58:39;;;;;;;5.63;4.38;;;;;;;20.95;41.31;102271.97;5009940;28;20037;-74
2022/05/07 04:01:08;;;;;;;7.40;4.43;;;;;;;20.97;41.24;102276.13;5029937;28;20511;-73
2022/05/07 04:03:35;;;;;;;4.68;4.05;;;;;;;20.97;41.30;102275.28;5017705;28;20048;-74
2022/05/07 04:06:01;;;;;;;5.13;4.20;;;;;;;20.97;41.35;102277.94;4995872;28;20053;-74
2022/05/07 04:08:27;;;;;;;5.78;4.57;;;;;;;20.93;41.38;102281.88;5018659;28;20589;-74
2022/05/07 04:10:54;;;;;;;5.38;4.07;;;;;;;20.91;41.37;102281.19;5035674;28;20597;-74
2022/05/07 04:13:23;;;;;;;5.63;4.07;;;;;;;20.95;41.18;102299.28;5020784;28;20059;-75
2022/05/07 04:15:54;;;;;;;5.05;4.40;;;;;;;20.96;41.34;102292.16;5021341;28;20032;-74
2022/05/07 04:18:22;;;;;;;6.32;4.40;;;;;;;21.00;41.18;102297.00;5020624;28;20032;-73
2022/05/07 04:20:52;;;;;;;5.75;4.30;;;;;;;20.97;41.39;102299.13;5019840;28;20040;-74
2022/05/07 04:23:20;;;;;;;5.38;4.22;;;;;;;21.00;41.22;102293.50;5017616;28;20057;-72
2022/05/07 04:25:47;;;;;;;6.47;4.28;;;;;;;20.93;41.33;102288.00;5020244;28;20036;-74
2022/05/07 04:28:16;;;;;;;5.47;4.45;;;;;;;20.96;41.36;102300.09;5039123;28;20480;-75
2022/05/07 04:30:45;;;;;;;4.72;4.15;;;;;;;20.90;41.31;102295.44;5019374;28;20151;-74
2022/05/07 04:33:15;;;;;;;4.80;4.20;;;;;;;20.94;41.43;102302.91;5050321;28;20043;-75
2022/05/07 04:35:41;;;;;;;6.75;4.63;;;;;;;20.92;41.28;102299.59;5013165;28;20557;-74
2022/05/07 04:38:07;;;;;;;5.05;4.20;;;;;;;20.96;41.34;102303.59;5033187;28;20473;-74
2022/05/07 04:40:35;;;;;;;6.30;4.10;;;;;;;20.96;41.12;102308.88;4998650;28;20071;-74
2022/05/07 04:43:01;;;;;;;4.88;4.10;;;;;;;20.93;41.38;102305.72;5033703;28;20275;-74
2022/05/07 04:45:30;;;;;;;4.60;3.95;;;;;;;20.94;41.29;102302.06;5036922;28;20049;-74
2022/05/07 04:48:02;;;;;;;6.75;4.43;;;;;;;20.92;41.39;102302.22;5020293;28;20098;-74
2022/05/07 04:50:31;;;;;;;4.68;4.15;;;;;;;20.97;41.24;102299.13;5019961;28;20120;-74
2022/05/07 04:53:26;;;;;;;6.05;4.00;;;;;;;20.98;41.17;102306.06;5012382;28;20125;-74
2022/05/07 04:55:55;;;;;;;5.03;4.00;;;;;;;20.94;41.19;102294.13;5034913;28;20037;-74
2022/05/07 04:58:23;;;;;;;5.25;4.47;;;;;;;20.99;41.26;102303.28;5002109;28;20037;-74
2022/05/07 05:00:49;;;;;;;5.05;4.38;;;;;;;20.99;41.21;102315.69;5004542;28;20148;-74
2022/05/07 05:03:18;;;;;;;4.82;4.05;;;;;;;20.85;41.37;102295.06;5014884;28;20037;-74
2022/05/07 05:05:55;;;;;;;4.60;3.80;;;;;;;21.00;41.02;102318.19;5033563;28;20040;-74
2022/05/07 05:08:40;;;;;;;5.47;4.22;;;;;;;20.96;41.26;102316.81;5032714;28;20049;-74
2022/05/07 05:11:05;;;;;;;4.90;4.07;;;;;;;20.92;41.37;102314.63;5020125;28;20598;-75
2022/05/07 05:13:33;;;;;;;4.22;3.83;;;;;;;20.93;41.33;102325.06;5030173;28;20396;-74
2022/05/07 05:15:59;;;;;;;4.55;4.03;;;;;;;20.93;41.33;102322.44;5005340;28;20044;-74
2022/05/07 05:18:50;;;;;;;5.22;4.13;;;;;;;20.92;41.37;102328.72;5031850;28;20103;-74
2022/05/07 05:21:19;;;;;;;4.55;3.95;;;;;;;20.88;41.50;102335.31;5018207;28;20673;-74
2022/05/07 05:23:55;;;;;;;4.82;4.15;;;;;;;20.89;41.39;102322.88;5012890;28;20045;-74
2022/05/07 05:26:21;;;;;;;5.00;4.10;;;;;;;20.92;41.31;102328.72;5026268;28;20044;-74
2022/05/07 05:28:52;;;;;;;4.75;4.00;;;;;;;20.93;41.33;102333.03;4999765;28;20049;-75
2022/05/07 05:31:19;;;;;;;4.35;3.65;;;;;;;20.89;41.26;102331.66;5021190;28;20063;-74
2022/05/07 05:33:49;;;;;;;4.55;4.00;;;;;;;20.89;41.24;102328.19;5019501;28;20472;-74
2022/05/07 05:36:28;;;;;;;5.10;4.00;;;;;;;20.90;41.17;102330.69;5051808;28;20024;-74
2022/05/07 05:38:54;;;;;;;4.50;3.70;;;;;;;20.96;41.27;102331.88;5013895;28;20768;-74
2022/05/07 05:41:25;;;;;;;4.22;3.83;;;;;;;20.95;41.42;102335.50;5030323;28;20454;-74
2022/05/07 05:43:51;;;;;;;6.45;4.68;;;;;;;20.93;41.36;102326.91;5035351;28;20045;-75
2022/05/07 05:46:18;;;;;;;4.65;4.15;;;;;;;20.97;41.22;102337.03;5015506;28;20028;-72
2022/05/07 05:48:45;;;;;;;5.93;4.40;;;;;;;20.89;41.40;102329.03;5015758;28;20090;-74
2022/05/07 05:51:11;;;;;;;5.78;4.15;;;;;;;20.93;41.27;102327.72;5013432;28;20048;-74
2022/05/07 05:53:41;;;;;;;4.57;4.18;;;;;;;20.92;41.50;102323.41;5018154;28;20538;-74
2022/05/07 05:56:09;;;;;;;5.22;4.50;;;;;;;20.90;41.37;102320.09;5017880;28;20045;-75
2022/05/07 05:58:41;;;;;;;5.15;4.18;;;;;;;20.95;41.49;102327.56;5048598;28;20159;-74
2022/05/07 06:01:07;;;;;;;4.80;4.10;;;;;;;20.96;41.28;102332.72;5015016;28;20052;-74
2022/05/07 06:03:36;;;;;;;;;;;;;;;21.00;41.23;102338.53;5017779;28;20467;-74
2022/05/07 06:06:02;;;;;;;5.30;4.30;;;;;;;21.01;41.30;102335.75;5020225;28;19921;-74
2022/05/07 06:08:28;;;;;;;4.60;3.78;;;;;;;20.98;41.31;102333.38;5014770;28;20036;-74
2022/05/07 06:10:57;;;;;;;4.20;3.67;;;;;;;20.99;41.04;102328.94;5015177;28;20148;-74
2022/05/07 06:13:25;;;;;;;5.63;4.00;;;;;;;21.01;41.30;102334.94;5035294;28;20088;-74
2022/05/07 06:15:52;;;;;;;4.72;4.07;;;;;;;21.01;41.19;102330.47;5018277;28;21693;-74
2022/05/07 06:18:20;;;;;;;5.40;4.10;;;;;;;21.04;41.29;102339.91;5033354;28;20681;-74
2022/05/07 06:20:45;;;;;;;4.55;3.92;;;;;;;21.19;40.89;102342.88;5033922;28;20706;-74
2022/05/07 06:23:12;;;;;;;4.15;3.75;;;;;;;21.30;40.52;102335.53;5030558;28;20163;-74
2022/05/07 06:28:22;;;;;;;3.95;3.55;;;;;;;21.32;40.77;102349.47;5014389;28;20052;-72
2022/05/07 06:30:49;;;;;;;4.45;3.50;;;;;;;21.32;40.92;102336.22;5047916;28;20037;-72
2022/05/07 06:33:17;;;;;;;4.63;3.78;;;;;;;21.39;40.62;102339.09;5033787;28;20116;-72
2022/05/07 06:35:50;;;;;;;4.22;3.70;;;;;;;21.45;40.73;102350.91;5014342;28;20044;-72
2022/05/07 06:38:28;;;;;;;4.53;3.90;;;;;;;21.49;40.48;102346.94;5024429;28;20051;-72
2022/05/07 06:40:56;;;;;;;4.40;3.67;;;;;;;21.60;40.38;102349.38;4998243;28;20037;-72
2022/05/07 06:43:23;;;;;;;3.90;3.28;;;;;;;21.65;40.49;102352.38;5015878;28;20522;-74
2022/05/07 06:46:09;;;;;;;5.05;3.97;;;;;;;21.66;40.08;102362.81;5017396;28;20037;-74
2022/05/07 06:48:42;;;;;;;4.20;3.80;;;;;;;21.66;40.39;102364.63;5018401;28;20179;-74
2022/05/07 06:51:15;;;;;;;5.15;3.45;;;;;;;21.66;40.54;102362.00;4999658;28;20064;-74
2022/05/07 06:53:40;;;;;;;5.07;3.97;;;;;;;21.60;40.64;102357.31;5036927;28;20064;-74
2022/05/07 06:56:06;;;;;;;3.50;3.20;;;;;;;21.54;40.67;102342.84;5025903;28;20040;-74
2022/05/07 06:58:35;;;;;;;4.13;3.47;;;;;;;21.68;40.33;102346.75;5040865;28;20048;-74
2022/05/07 07:01:01;;;;;;;4.40;3.92;;;;;;;21.76;40.37;102353.94;5037148;28;20145;-74
2022/05/07 07:03:27;;;;;;;4.00;3.60;;;;;;;21.79;40.20;102357.13;5029842;28;20041;-74
2022/05/07 07:05:55;;;;;;;3.97;3.55;;;;;;;21.82;40.19;102353.31;5032124;28;21018;-74
2022/05/07 07:08:21;;;;;;;4.32;3.47;;;;;;;21.94;40.21;102357.38;5034098;28;20032;-74
2022/05/07 07:10:47;;;;;;;5.05;3.60;;;;;;;21.97;39.81;102351.75;5015196;28;20041;-74
2022/05/07 07:13:16;;;;;;;4.50;3.40;;;;;;;21.99;40.01;102365.69;5033569;28;20045;-74
2022/05/07 07:15:42;;;;;;;4.38;3.65;;;;;;;21.98;39.64;102364.03;5035040;28;20114;-74
2022/05/07 07:18:12;;;;;;;4.68;3.20;;;;;;;21.98;39.61;102359.56;5035986;28;20048;-74
2022/05/07 07:20:42;;;;;;;4.15;3.60;;;;;;;21.91;39.66;102353.22;5038722;28;20502;-72
2022/05/07 07:23:12;;;;;;;4.22;3.63;;;;;;;22.00;39.94;102372.66;5035193;28;20053;-73
2022/05/07 07:25:39;;;;;;;;;;;;;;;22.01;39.80;102372.50;5029575;28;20033;-74
2022/05/07 07:28:05;;;;;;;4.15;3.63;;;;;;;22.00;39.74;102365.53;5026543;28;20028;-75
2022/05/07 07:30:31;;;;;;;3.78;3.33;;;;;;;22.00;40.00;102373.50;5035316;28;20057;-72
2022/05/07 07:32:57;;;;;;;3.92;3.50;;;;;;;21.98;40.06;102356.06;5033082;28;20037;-71
2022/05/07 07:35:22;;;;;;;4.30;3.50;;;;;;;21.97;40.28;102365.03;5042402;28;20181;-70
2022/05/07 07:37:48;;;;;;;4.90;3.50;;;;;;;21.97;39.71;102363.19;5036638;28;20124;-70
2022/05/07 07:40:14;;;;;;;4.20;3.80;;;;;;;22.01;40.12;102369.00;5037632;28;20041;-69
2022/05/07 07:42:42;;;;;;;3.80;3.40;;;;;;;21.98;39.91;102367.50;5039300;28;20029;-69
2022/05/07 07:47:57;;;;;;;3.88;3.47;;;;;;;21.97;39.91;102368.50;5043184;28;19920;-69
2022/05/07 07:50:29;;;;;;;4.60;3.83;;;;;;;21.96;40.04;102376.63;5028633;28;20490;-69
2022/05/07 07:52:57;;;;;;;4.15;3.58;;;;;;;21.95;40.08;102382.91;5038551;28;20043;-69
2022/05/07 07:55:23;;;;;;;4.95;4.20;;;;;;;21.97;40.05;102389.72;5038903;28;20033;-71
2022/05/07 07:57:52;;;;;;;5.78;3.95;;;;;;;21.96;40.17;102384.56;5023091;28;20041;-69
2022/05/07 08:00:17;;;;;;;4.18;3.58;;;;;;;21.96;39.94;102389.88;5035898;28;20095;-71
2022/05/07 08:02:51;;;;;;;4.82;3.83;;;;;;;21.95;39.93;102390.88;5046976;28;20060;-71
2022/05/07 08:05:19;;;;;;;5.15;3.65;;;;;;;21.94;40.16;102391.84;5027727;28;20717;-71
2022/05/07 08:13:14;;;;;;;4.03;3.63;;;;;;;21.93;40.03;102387.53;5051406;28;20087;-71
2022/05/07 08:15:41;;;;;;;4.20;3.72;;;;;;;21.93;39.77;102390.19;5047332;28;20112;-71
2022/05/07 08:18:07;;;;;;;4.00;3.60;;;;;;;21.88;39.97;102385.34;5043735;28;20079;-71
2022/05/07 08:20:33;;;;;;;4.43;3.70;;;;;;;21.88;39.83;102384.50;5042633;28;20071;-71
2022/05/07 08:23:00;;;;;;;4.28;3.58;;;;;;;21.92;39.94;102389.38;5034092;28;20046;-71
2022/05/07 08:25:25;;;;;;;4.25;3.70;;;;;;;21.88;40.14;102392.47;5042166;28;20029;-71
2022/05/07 08:27:51;;;;;;;4.30;3.40;;;;;;;21.90;39.84;102391.34;5025055;28;20527;-71
2022/05/07 08:30:17;;;;;;;4.40;4.00;;;;;;;21.95;40.01;102390.88;5037278;28;20243;-71
2022/05/07 08:32:42;;;;;;;6.05;3.75;;;;;;;21.94;40.07;102397.16;5044478;28;20033;-71
2022/05/07 08:35:08;;;;;;;4.85;3.75;;;;;;;21.90;39.94;102386.03;5025180;28;20045;-69
2022/05/07 08:37:33;;;;;;;4.68;3.55;;;;;;;21.93;40.07;102398.97;5044938;28;20024;-71
2022/05/07 08:40:01;;;;;;;4.28;3.72;;;;;;;21.91;40.10;102389.53;5039267;28;20041;-71
2022/05/07 08:42:30;;;;;;;5.15;3.72;;;;;;;21.89;39.97;102386.16;5049900;28;20039;-71
2022/05/07 08:44:57;;;;;;;3.90;3.50;;;;;;;21.89;40.17;102391.47;5038661;28;20037;-68
2022/05/07 08:47:23;;;;;;;4.35;3.92;;;;;;;21.93;39.68;102398.16;5042247;28;20032;-68
2022/05/07 08:49:50;;;;;;;4.93;4.00;;;;;;;21.93;40.12;102401.63;5046247;28;20137;-68
2022/05/07 08:52:19;;;;;;;3.63;3.33;;;;;;;21.94;40.04;102402.47;5048830;28;20119;-69
2022/05/07 08:54:45;;;;;;;4.60;3.72;;;;;;;21.90;39.99;102404.59;5049268;28;20037;-69
2022/05/07 08:57:12;;;;;;;4.88;4.05;;;;;;;21.96;39.99;102411.09;5049645;28;20593;-69
2022/05/07 08:59:38;;;;;;;4.70;3.63;;;;;;;21.94;39.73;102402.47;5043187;28;20118;-68
2022/05/07 09:02:04;;;;;;;5.65;3.88;;;;;;;21.94;39.95;102408.59;5040358;28;20120;-68
2022/05/07 09:04:30;;;;;;;4.82;3.97;;;;;;;21.92;40.07;102401.78;5045464;28;20048;-71
2022/05/07 09:06:57;;;;;;;4.43;3.58;;;;;;;21.93;39.93;102398.97;5022628;28;20538;-70
2022/05/07 09:09:23;;;;;;;4.38;3.97;;;;;;;21.95;39.99;102399.66;5035366;28;20047;-71
2022/05/07 09:11:49;;;;;;;4.15;3.72;;;;;;;22.01;40.00;102398.19;5047098;28;20557;-70
2022/05/07 09:14:18;;;;;;;5.50;3.80;;;;;;;22.01;39.92;102408.81;5048447;28;20041;-71
2022/05/07 09:16:48;;;;;;;6.65;3.88;;;;;;;22.02;40.11;102407.81;5046745;28;20198;-70
2022/05/07 09:19:23;;;;;;;4.57;3.60;;;;;;;22.02;39.83;102408.66;5045416;28;20176;-71
2022/05/07 09:21:49;;;;;;;8.70;5.00;;;;;;;22.23;40.09;102413.59;5042605;28;20490;-71
2022/05/07 09:24:15;;;;;;;5.75;4.65;;;;;;;22.33;39.52;102394.09;5034801;28;20049;-74
2022/05/07 09:26:43;;;;;;;6.63;4.60;;;;;;;22.42;39.39;102401.09;5039081;28;20045;-71
2022/05/07 09:29:10;;;;;;;7.13;4.85;;;;;;;22.49;39.58;102400.31;5043459;28;20045;-71
2022/05/07 09:31:37;;;;;;;5.20;4.40;;;;;;;22.52;39.70;102407.94;5040283;28;20460;-71
2022/05/07 09:36:55;;;;;;;6.18;4.20;;;;;;;22.55;39.73;102412.09;5035662;28;20399;-71
2022/05/07 09:39:21;;;;;;;7.80;4.55;;;;;;;22.52;39.66;102407.13;5025355;28;20044;-71
2022/05/07 09:41:53;;;;;;;5.90;4.13;;;;;;;22.54;39.63;102421.06;5040951;28;20331;-71
2022/05/07 09:44:20;;;;;;;6.45;4.30;;;;;;;22.50;39.85;102412.59;5039493;28;20522;-71
2022/05/07 09:46:46;;;;;;;5.88;4.78;;;;;;;22.44;39.73;102413.25;5035195;28;20549;-71
2022/05/07 09:49:12;;;;;;;6.57;4.45;;;;;;;22.47;39.69;102410.25;5038582;28;20045;-71
2022/05/07 09:51:40;;;;;;;5.50;4.33;;;;;;;22.47;39.69;102420.88;5039274;28;20038;-71
2022/05/07 09:59:38;;;;;;;5.85;4.50;;;;;;;22.45;39.75;102430.00;5048662;28;20107;-71
2022/05/07 10:02:20;;;;;;;7.15;4.70;;;;;;;22.39;39.54;102423.47;5040183;28;20075;-71
2022/05/07 10:05:16;;;;;;;7.68;4.65;;;;;;;22.41;39.75;102428.63;5041387;28;20738;-71
2022/05/07 10:07:47;;;;;;;6.68;4.78;;;;;;;22.38;39.84;102429.78;5039650;28;20743;-71
2022/05/07 10:10:39;;;;;;;7.10;4.47;;;;;;;22.41;39.78;102431.28;5041225;28;20036;-71
2022/05/07 10:13:05;;;;;;;8.65;4.93;;;;;;;22.39;39.82;102431.44;5038560;28;20064;-71
2022/05/07 10:15:31;;;;;;;6.03;4.72;;;;;;;22.39;39.71;102434.09;5039663;28;20044;-71
2022/05/07 10:18:06;;;;;;;7.10;4.95;;;;;;;22.36;39.91;102433.59;5040213;28;20048;-71
2022/05/07 10:20:44;;;;;;;5.38;4.40;;;;;;;22.37;40.28;102443.22;5042424;28;20052;-72
2022/05/07 10:23:15;;;;;;;6.82;4.90;;;;;;;22.38;39.91;102437.75;5039602;28;20099;-72
2022/05/07 10:25:43;;;;;;;9.48;5.28;;;;;;;22.31;40.18;102436.72;5048299;28;20119;-72
2022/05/07 10:28:14;;;;;;;8.60;5.25;;;;;;;22.35;40.08;102438.06;5044175;28;20051;-72
2022/05/07 10:30:51;;;;;;;8.82;5.43;;;;;;;22.36;40.54;102441.56;5039979;28;20130;-72
2022/05/07 10:33:18;;;;;;;9.68;5.75;;;;;;;22.38;40.29;102428.94;5040828;28;20050;-72
2022/05/07 10:35:51;;;;;;;7.03;5.47;;;;;;;22.35;40.61;102437.22;5036089;28;20119;-70
2022/05/07 10:38:38;;;;;;;10.15;5.13;;;;;;;22.37;40.71;102437.91;5042655;28;20683;-71
2022/05/07 10:41:14;;;;;;;8.43;5.70;;;;;;;22.41;40.46;102434.78;5034513;28;20071;-71
2022/05/07 10:43:42;;;;;;;8.02;5.80;;;;;;;22.34;40.89;102428.44;5038757;28;21983;-71
2022/05/07 10:46:12;;;;;;;7.70;5.22;;;;;;;22.40;41.07;102438.41;5037316;28;20036;-72
2022/05/07 10:49:06;;;;;;;8.27;5.78;;;;;;;22.43;40.83;102439.91;5037833;28;20086;-72
2022/05/07 10:51:50;;;;;;;6.68;5.40;;;;;;;22.33;41.19;102420.63;5035596;28;20124;-72
2022/05/07 10:54:16;;;;;;;8.40;6.00;;;;;;;22.42;41.01;102432.94;5039044;28;20090;-72
2022/05/07 10:56:58;;;;;;;9.63;6.10;;;;;;;22.42;40.86;102433.78;5041853;28;20853;-71
2022/05/07 10:59:26;;;;;;;9.77;5.55;;;;;;;22.41;40.99;102434.78;5037724;28;20098;-72
2022/05/07 11:02:02;;;;;;;8.70;5.82;;;;;;;22.51;40.42;102443.47;5040499;28;20415;-72
2022/05/07 11:04:28;;;;;;;10.20;6.28;;;;;;;22.55;40.39;102433.34;5043136;28;20366;-71
2022/05/07 11:06:53;;;;;;;9.65;6.47;;;;;;;22.54;40.35;102437.81;5022718;28;20056;-73
2022/05/07 11:09:21;;;;;;;8.98;6.05;;;;;;;22.54;40.77;102440.47;5038498;28;20698;-72
2022/05/07 11:11:57;;;;;;;14.02;7.40;;;;;;;22.54;40.90;102437.00;5036655;28;20040;-72
2022/05/07 11:14:23;;;;;;;10.02;6.60;;;;;;;22.55;40.63;102441.31;5040951;28;20467;-72
2022/05/07 11:16:53;;;;;;;11.73;7.07;;;;;;;22.52;41.14;102441.63;5029754;28;20044;-72
2022/05/07 11:19:29;;;;;;;;;;;;;;;22.53;40.91;102440.63;5025931;28;20067;-72
2022/05/07 11:21:56;;;;;;;9.85;5.50;;;;;;;22.55;40.82;102449.28;5028087;28;19946;-73
2022/05/07 11:24:22;;;;;;;8.95;6.53;;;;;;;22.53;40.71;102438.81;5047077;28;22279;-72
2022/05/07 11:27:02;;;;;;;7.90;5.90;;;;;;;22.53;40.70;102441.47;5047246;28;20068;-72
2022/05/07 11:29:29;;;;;;;10.15;5.90;;;;;;;22.54;40.62;102442.31;5045078;28;20094;-72
2022/05/07 11:32:07;;;;;;;9.10;6.30;;;;;;;22.50;40.71;102447.09;5039302;28;20040;-72
2022/05/07 11:34:33;;;;;;;7.72;6.10;;;;;;;22.51;40.77;102447.94;5047185;28;20033;-73
2022/05/07 11:37:21;;;;;;;17.52;8.73;;;;;;;22.57;41.60;102452.59;5046595;28;20051;-72
2022/05/07 11:39:53;;;;;;;15.38;8.20;;;;;;;22.34;42.40;102454.97;5045483;28;20036;-74
2022/05/07 11:42:25;;;;;;;13.70;8.23;;;;;;;22.47;43.61;102462.53;5020592;28;20042;-69
2022/05/07 11:47:56;;;;;;;8.98;6.32;;;;;;;22.34;41.79;102433.75;5041531;28;20032;-70
2022/05/07 11:50:30;;;;;;;9.07;5.80;;;;;;;22.51;41.42;102458.56;5045911;28;20028;-70
2022/05/07 11:52:56;;;;;;;6.40;5.35;;;;;;;22.51;41.24;102464.69;5038294;28;20115;-70
2022/05/07 11:55:28;;;;;;;8.27;5.70;;;;;;;22.51;41.22;102470.00;5043862;28;20031;-70
2022/05/07 11:57:57;;;;;;;7.97;5.18;;;;;;;22.52;41.08;102471.66;5047360;28;20040;-70